createdAt,value
2022-08-27T00:00:09.457Z,14.05
2022-08-27T00:02:36.087Z,13.15
2022-08-27T00:05:03.786Z,16.90
2022-08-27T00:07:30.791Z,13.95
2022-08-27T00:09:57.396Z,20.83
2022-08-27T00:12:24.035Z,11.13
2022-08-27T00:14:50.688Z,13.75
2022-08-27T00:17:17.377Z,11.73
2022-08-27T00:19:44.400Z,10.93
2022-08-27T00:22:12.081Z,17.35
2022-08-27T00:24:48.837Z,18.87
2022-08-27T00:27:16.295Z,12.55
2022-08-27T00:29:42.891Z,15.77
2022-08-27T00:32:09.550Z,12.85
2022-08-27T00:34:36.260Z,12.98
2022-08-27T00:37:03.619Z,15.80
2022-08-27T00:39:30.422Z,11.85
2022-08-27T00:41:57.114Z,14.38
2022-08-27T00:44:23.723Z,15.23
2022-08-27T00:46:55.155Z,10.52
2022-08-27T00:49:45.785Z,13.15
2022-08-27T00:52:15.272Z,15.07
2022-08-27T00:54:42.273Z,10.40
2022-08-27T00:57:08.899Z,20.45
2022-08-27T00:59:35.628Z,8.25
2022-08-27T01:02:20.853Z,11.75
2022-08-27T01:05:09.402Z,12.65
2022-08-27T01:07:38.890Z,18.15
2022-08-27T01:10:09.088Z,11.88
2022-08-27T01:12:36.178Z,11.32
2022-08-27T01:15:07.969Z,10.85
2022-08-27T01:17:38.275Z,9.65
2022-08-27T01:20:09.526Z,15.68
2022-08-27T01:23:02.586Z,10.88
2022-08-27T01:25:29.341Z,13.02
2022-08-27T01:27:58.759Z,15.95
2022-08-27T01:30:26.172Z,12.10
2022-08-27T01:32:53.499Z,13.32
2022-08-27T01:35:21.744Z,11.98
2022-08-27T01:37:52.452Z,15.63
2022-08-27T01:40:19.664Z,14.73
2022-08-27T01:42:49.847Z,13.68
2022-08-27T01:45:26.520Z,9.75
2022-08-27T01:47:53.721Z,10.75
2022-08-27T01:50:24.161Z,10.13
2022-08-27T01:52:52.025Z,11.45
2022-08-27T01:55:22.896Z,12.35
2022-08-27T01:57:49.963Z,9.10
2022-08-27T02:00:22.977Z,8.95
2022-08-27T02:02:49.877Z,8.68
2022-08-27T02:05:16.731Z,12.73
2022-08-27T02:07:43.885Z,14.75
2022-08-27T02:10:15.922Z,8.63
2022-08-27T02:12:42.500Z,10.25
2022-08-27T02:15:09.691Z,11.63
2022-08-27T02:17:36.288Z,8.48
2022-08-27T02:20:03.909Z,12.30
2022-08-27T02:22:30.498Z,13.33
2022-08-27T02:24:57.156Z,10.40
2022-08-27T02:27:23.775Z,8.18
2022-08-27T02:29:52.213Z,9.45
2022-08-27T02:34:50.691Z,10.32
2022-08-27T02:37:17.317Z,13.43
2022-08-27T02:39:46.085Z,8.48
2022-08-27T02:42:12.825Z,9.82
2022-08-27T02:44:39.595Z,8.32
2022-08-27T02:47:06.408Z,8.60
2022-08-27T02:49:34.121Z,5.18
2022-08-27T02:52:00.898Z,12.10
2022-08-27T02:54:27.789Z,12.00
2022-08-27T02:56:54.727Z,10.38
2022-08-27T02:59:22.247Z,8.60
2022-08-27T03:01:49.591Z,7.30
2022-08-27T03:04:17.679Z,7.60
2022-08-27T03:06:44.385Z,6.00
2022-08-27T03:09:11.501Z,8.75
2022-08-27T03:11:38.206Z,9.60
2022-08-27T03:14:04.960Z,5.53
2022-08-27T03:16:34.759Z,9.07
2022-08-27T03:19:01.535Z,6.85
2022-08-27T03:21:28.313Z,6.25
2022-08-27T03:23:54.959Z,4.65
2022-08-27T03:26:21.860Z,5.25
2022-08-27T03:28:48.505Z,6.93
2022-08-27T03:31:20.657Z,10.88
2022-08-27T03:33:47.428Z,7.13
2022-08-27T03:36:14.019Z,7.85
2022-08-27T03:38:40.648Z,6.60
2022-08-27T03:41:07.443Z,6.50
2022-08-27T03:43:34.128Z,5.50
2022-08-27T03:46:02.382Z,15.18
2022-08-27T03:50:57.315Z,8.15
2022-08-27T03:53:23.895Z,9.55
2022-08-27T03:55:50.689Z,7.72
2022-08-27T03:58:17.990Z,9.15
2022-08-27T04:00:44.851Z,5.85
2022-08-27T04:03:13.348Z,8.18
2022-08-27T04:05:40.859Z,8.30
2022-08-27T04:08:09.890Z,10.75
2022-08-27T04:10:42.446Z,8.60
2022-08-27T04:13:09.097Z,6.80
2022-08-27T04:15:40.732Z,10.07
2022-08-27T04:18:07.681Z,7.60
2022-08-27T04:20:35.722Z,7.45
2022-08-27T04:23:02.743Z,9.75
2022-08-27T04:25:29.512Z,4.78
2022-08-27T04:27:56.280Z,6.13
2022-08-27T04:30:22.873Z,9.57
2022-08-27T04:32:50.665Z,6.18
2022-08-27T04:35:17.579Z,7.47
2022-08-27T04:37:44.243Z,4.18
2022-08-27T04:40:11.328Z,7.53
2022-08-27T04:42:38.111Z,8.40
2022-08-27T04:45:05.484Z,3.88
2022-08-27T04:47:32.454Z,5.40
2022-08-27T04:49:59.416Z,5.57
2022-08-27T04:52:26.138Z,6.50
2022-08-27T04:54:53.636Z,5.43
2022-08-27T04:57:20.978Z,11.45
2022-08-27T04:59:47.804Z,7.70
2022-08-27T05:02:14.501Z,13.80
2022-08-27T05:04:41.703Z,6.90
2022-08-27T05:07:09.551Z,6.63
2022-08-27T05:09:36.357Z,5.30
2022-08-27T05:12:03.469Z,3.80
2022-08-27T05:14:30.525Z,6.53
2022-08-27T05:16:58.390Z,9.77
2022-08-27T05:19:25.032Z,3.47
2022-08-27T05:21:53.750Z,4.28
2022-08-27T05:24:20.969Z,7.55
2022-08-27T05:26:48.179Z,5.75
2022-08-27T05:29:15.024Z,4.13
2022-08-27T05:31:42.000Z,4.40
2022-08-27T05:34:10.559Z,7.85
2022-08-27T05:36:48.018Z,6.53
2022-08-27T05:39:15.804Z,6.07
2022-08-27T05:41:42.473Z,5.07
2022-08-27T05:44:39.077Z,7.22
2022-08-27T05:46:56.574Z,4.13
2022-08-27T05:49:23.179Z,4.93
2022-08-27T05:51:49.807Z,3.97
2022-08-27T05:54:19.870Z,4.43
2022-08-27T05:56:49.365Z,6.90
2022-08-27T05:59:35.072Z,8.95
2022-08-27T06:02:02.527Z,5.82
2022-08-27T06:04:29.425Z,4.32
2022-08-27T06:06:56.480Z,5.10
2022-08-27T06:09:25.614Z,7.88
2022-08-27T06:11:57.484Z,9.02
2022-08-27T06:14:24.233Z,5.53
2022-08-27T06:16:50.837Z,6.95
2022-08-27T06:19:17.865Z,7.88
2022-08-27T06:21:44.704Z,5.90
2022-08-27T06:24:14.546Z,5.55
2022-08-27T06:26:42.930Z,10.10
2022-08-27T06:29:10.162Z,4.68
2022-08-27T06:31:37.458Z,6.32
2022-08-27T06:34:08.939Z,5.45
2022-08-27T06:36:42.587Z,5.75
2022-08-27T06:39:13.656Z,6.88
2022-08-27T06:41:41.341Z,8.00
2022-08-27T06:44:08.413Z,9.07
2022-08-27T06:46:37.085Z,10.63
2022-08-27T06:49:03.921Z,5.80
2022-08-27T06:51:33.318Z,6.47
2022-08-27T06:54:02.842Z,6.55
2022-08-27T06:56:31.297Z,6.78
2022-08-27T07:01:30.277Z,13.00
2022-08-27T07:03:59.875Z,6.25
2022-08-27T07:06:29.225Z,10.55
2022-08-27T07:08:59.361Z,6.47
2022-08-27T07:11:27.557Z,5.75
2022-08-27T07:13:54.352Z,5.47
2022-08-27T07:16:23.899Z,4.13
2022-08-27T07:18:53.205Z,6.80
2022-08-27T07:21:20.394Z,13.23
2022-08-27T07:23:48.920Z,7.05
2022-08-27T07:28:44.492Z,6.57
2022-08-27T07:31:13.195Z,8.23
2022-08-27T07:33:42.172Z,10.15
2022-08-27T07:36:13.373Z,7.20
2022-08-27T07:38:40.023Z,9.98
2022-08-27T07:41:11.821Z,5.47
2022-08-27T07:43:57.043Z,9.77
2022-08-27T07:46:24.818Z,9.05
2022-08-27T07:48:52.847Z,6.97
2022-08-27T07:51:21.600Z,8.35
2022-08-27T07:53:48.736Z,8.77
2022-08-27T07:56:16.301Z,7.43
2022-08-27T07:58:43.362Z,7.70
2022-08-27T08:01:10.916Z,8.80
2022-08-27T08:03:37.688Z,5.37
2022-08-27T08:06:09.220Z,13.40
2022-08-27T08:08:37.387Z,11.43
2022-08-27T08:11:06.524Z,7.80
2022-08-27T08:13:36.170Z,7.75
2022-08-27T08:16:03.200Z,13.93
2022-08-27T08:18:29.826Z,9.13
2022-08-27T08:21:01.306Z,15.45
2022-08-27T08:23:28.439Z,13.25
2022-08-27T08:25:58.151Z,11.10
2022-08-27T08:28:25.504Z,9.50
2022-08-27T08:30:53.943Z,12.57
2022-08-27T08:33:21.440Z,9.98
2022-08-27T08:35:51.523Z,7.03
2022-08-27T08:38:18.950Z,9.23
2022-08-27T08:40:53.283Z,11.85
2022-08-27T08:43:30.666Z,10.57
2022-08-27T08:46:03.343Z,6.00
2022-08-27T08:48:30.688Z,8.50
2022-08-27T08:51:07.287Z,8.82
2022-08-27T08:53:54.021Z,9.07
2022-08-27T08:56:45.423Z,13.73
2022-08-27T08:59:23.648Z,6.93
2022-08-27T09:01:50.436Z,11.23
2022-08-27T09:04:17.196Z,11.20
2022-08-27T09:06:46.149Z,13.63
2022-08-27T09:09:21.840Z,10.55
2022-08-27T09:11:54.433Z,7.85
2022-08-27T09:14:36.170Z,8.60
2022-08-27T09:17:03.196Z,7.80
2022-08-27T09:19:35.145Z,9.15
2022-08-27T09:22:28.582Z,13.60
2022-08-27T09:25:08.800Z,11.05
2022-08-27T09:27:38.678Z,11.45
2022-08-27T09:30:10.554Z,14.30
2022-08-27T09:32:37.834Z,7.13
2022-08-27T09:35:07.679Z,10.93
2022-08-27T09:37:44.638Z,13.65
2022-08-27T09:40:32.206Z,19.58
2022-08-27T09:43:28.424Z,18.58
2022-08-27T09:46:07.839Z,12.77
2022-08-27T09:48:37.283Z,13.00
2022-08-27T09:51:10.523Z,12.70
2022-08-27T09:53:50.380Z,11.80
2022-08-27T09:56:48.360Z,12.45
2022-08-27T09:59:43.914Z,18.65
2022-08-27T10:02:17.947Z,12.27
2022-08-27T10:04:53.073Z,10.45
2022-08-27T10:07:26.455Z,12.55
2022-08-27T10:10:16.372Z,9.43
2022-08-27T10:12:52.194Z,10.80
2022-08-27T10:15:19.230Z,17.48
2022-08-27T10:17:51.883Z,8.90
2022-08-27T10:20:41.087Z,15.82
2022-08-27T10:23:25.543Z,9.13
2022-08-27T10:25:58.966Z,12.20
2022-08-27T10:28:28.523Z,9.35
2022-08-27T10:31:13.592Z,15.90
2022-08-27T10:33:59.251Z,7.15
2022-08-27T10:37:10.284Z,14.85
2022-08-27T10:39:46.964Z,8.45
2022-08-27T10:42:34.464Z,13.77
2022-08-27T10:45:12.406Z,10.23
2022-08-27T10:48:03.717Z,6.03
2022-08-27T10:51:08.886Z,10.00
2022-08-27T10:53:50.284Z,9.50
2022-08-27T10:56:40.844Z,10.45
2022-08-27T10:59:29.377Z,9.73
2022-08-27T11:02:11.692Z,8.32
2022-08-27T11:04:43.206Z,9.07
2022-08-27T11:07:16.665Z,8.60
2022-08-27T11:09:56.186Z,13.82
2022-08-27T11:12:34.147Z,10.50
2022-08-27T11:15:12.859Z,9.57
2022-08-27T11:17:53.632Z,8.93
2022-08-27T11:20:28.660Z,15.88
2022-08-27T11:23:10.693Z,7.65
2022-08-27T11:25:57.439Z,13.93
2022-08-27T11:28:41.973Z,7.78
2022-08-27T11:31:41.738Z,10.05
2022-08-27T11:34:33.155Z,8.82
2022-08-27T11:37:20.333Z,8.85
2022-08-27T11:40:24.887Z,11.20
2022-08-27T11:43:04.475Z,7.82
2022-08-27T11:45:40.472Z,10.75
2022-08-27T11:48:29.541Z,8.45
2022-08-27T11:51:01.554Z,10.90
2022-08-27T11:53:32.925Z,7.50
2022-08-27T11:56:15.880Z,9.10
2022-08-27T11:58:53.444Z,7.10
2022-08-27T12:01:29.512Z,4.60
2022-08-27T12:04:08.233Z,5.70
2022-08-27T12:06:45.660Z,5.13
2022-08-27T12:09:22.601Z,5.47
2022-08-27T12:12:08.368Z,4.97
2022-08-27T12:14:37.848Z,4.93
2022-08-27T12:17:11.326Z,10.93
2022-08-27T12:19:46.988Z,7.35
2022-08-27T12:22:25.257Z,6.85
2022-08-27T12:24:57.103Z,3.17
2022-08-27T12:27:28.346Z,5.38
2022-08-27T12:30:06.899Z,5.72
2022-08-27T12:32:37.907Z,4.93
2022-08-27T12:35:10.980Z,5.10
2022-08-27T12:37:44.320Z,6.78
2022-08-27T12:40:20.492Z,6.68
2022-08-27T12:45:23.143Z,5.27
2022-08-27T12:47:50.613Z,9.70
2022-08-27T12:50:23.820Z,6.75
2022-08-27T12:53:05.686Z,7.55
2022-08-27T12:56:06.535Z,5.63
2022-08-27T12:58:34.163Z,4.78
2022-08-27T13:01:25.722Z,9.13
2022-08-27T13:03:55.016Z,4.13
2022-08-27T13:06:30.469Z,9.98
2022-08-27T13:09:01.016Z,7.93
2022-08-27T13:11:31.255Z,6.35
2022-08-27T13:14:25.256Z,8.18
2022-08-27T13:16:59.542Z,6.78
2022-08-27T13:19:49.187Z,7.82
2022-08-27T13:22:25.448Z,7.57
2022-08-27T13:24:54.648Z,9.82
2022-08-27T13:27:30.213Z,6.75
2022-08-27T13:30:09.739Z,8.57
2022-08-27T13:32:39.154Z,9.38
2022-08-27T13:35:06.973Z,8.50
2022-08-27T13:37:38.713Z,7.72
2022-08-27T13:40:06.319Z,6.18
2022-08-27T13:42:33.837Z,7.28
2022-08-27T13:45:02.452Z,8.25
2022-08-27T13:47:30.568Z,8.93
2022-08-27T13:50:07.601Z,12.43
2022-08-27T13:52:36.156Z,8.63
2022-08-27T13:57:47.505Z,7.00
2022-08-27T14:00:31.883Z,11.10
2022-08-27T14:03:00.970Z,6.50
2022-08-27T14:05:33.933Z,8.18
2022-08-27T14:08:11.016Z,6.43
2022-08-27T14:10:39.747Z,8.98
2022-08-27T14:13:11.723Z,9.45
2022-08-27T14:15:41.699Z,9.73
2022-08-27T14:18:55.037Z,7.85
2022-08-27T14:21:17.244Z,8.50
2022-08-27T14:23:44.702Z,13.10
2022-08-27T14:26:14.722Z,7.43
2022-08-27T14:28:42.620Z,6.07
2022-08-27T14:31:10.418Z,8.90
2022-08-27T14:33:38.428Z,4.85
2022-08-27T14:36:06.439Z,8.35
2022-08-27T14:38:38.259Z,9.38
2022-08-27T14:41:07.744Z,7.57
2022-08-27T14:43:35.189Z,4.07
2022-08-27T14:46:03.585Z,7.05
2022-08-27T14:48:33.560Z,6.97
2022-08-27T14:51:06.315Z,5.20
2022-08-27T14:53:32.962Z,7.35
2022-08-27T14:56:01.720Z,8.55
2022-08-27T14:58:29.363Z,5.93
2022-08-27T15:00:57.693Z,7.23
2022-08-27T15:03:25.650Z,7.22
2022-08-27T15:05:56.560Z,5.82
2022-08-27T15:08:27.649Z,8.05
2022-08-27T15:10:56.733Z,5.82
2022-08-27T15:13:23.704Z,7.53
2022-08-27T15:15:50.356Z,5.65
2022-08-27T15:18:19.121Z,6.97
2022-08-27T15:20:45.914Z,6.05
2022-08-27T15:23:13.086Z,6.53
2022-08-27T15:25:40.287Z,8.23
2022-08-27T15:28:06.997Z,9.63
2022-08-27T15:30:33.882Z,8.38
2022-08-27T15:33:00.578Z,5.10
2022-08-27T15:35:27.722Z,3.45
2022-08-27T15:37:56.344Z,4.03
2022-08-27T15:40:24.470Z,6.05
2022-08-27T15:42:57.303Z,8.00
2022-08-27T15:45:27.368Z,3.97
2022-08-27T15:47:54.948Z,6.57
2022-08-27T15:50:22.132Z,7.03
2022-08-27T15:52:49.426Z,6.43
2022-08-27T15:55:22.567Z,7.03
2022-08-27T15:57:49.501Z,6.10
2022-08-27T16:00:17.041Z,9.40
2022-08-27T16:02:44.830Z,4.82
2022-08-27T16:05:13.817Z,5.00
2022-08-27T16:07:40.435Z,6.13
2022-08-27T16:10:07.468Z,7.43
2022-08-27T16:12:34.854Z,6.00
2022-08-27T16:15:02.381Z,3.72
2022-08-27T16:17:29.071Z,8.05
2022-08-27T16:19:55.793Z,5.40
2022-08-27T16:22:22.441Z,4.97
2022-08-27T16:24:49.459Z,5.70
2022-08-27T16:27:16.054Z,9.63
2022-08-27T16:29:42.921Z,7.63
2022-08-27T16:32:14.549Z,8.18
2022-08-27T16:34:41.273Z,4.82
2022-08-27T16:37:07.910Z,8.05
2022-08-27T16:39:38.683Z,5.22
2022-08-27T16:42:10.163Z,5.63
2022-08-27T16:44:37.835Z,6.38
2022-08-27T16:47:05.710Z,6.57
2022-08-27T16:49:51.027Z,4.90
2022-08-27T16:52:17.915Z,6.88
2022-08-27T16:54:46.030Z,6.53
2022-08-27T16:57:12.892Z,6.10
2022-08-27T16:59:39.561Z,6.88
2022-08-27T17:02:06.983Z,5.38
2022-08-27T17:04:35.542Z,5.63
2022-08-27T17:07:08.759Z,5.88
2022-08-27T17:09:38.307Z,9.40
2022-08-27T17:14:37.883Z,6.55
2022-08-27T17:17:06.018Z,6.43
2022-08-27T17:19:34.866Z,7.53
2022-08-27T17:22:02.180Z,4.80
2022-08-27T17:24:28.914Z,4.60
2022-08-27T17:26:55.616Z,4.53
2022-08-27T17:29:22.224Z,6.60
2022-08-27T17:31:48.891Z,6.18
2022-08-27T17:34:17.908Z,4.55
2022-08-27T17:36:45.352Z,4.65
2022-08-27T17:39:13.436Z,6.50
2022-08-27T17:41:42.642Z,5.53
2022-08-27T17:44:21.641Z,5.30
2022-08-27T17:46:50.081Z,4.38
2022-08-27T17:49:17.722Z,5.05
2022-08-27T17:51:45.664Z,7.80
2022-08-27T17:54:20.416Z,5.63
2022-08-27T17:56:47.021Z,5.97
2022-08-27T17:59:13.649Z,5.57
2022-08-27T18:01:41.403Z,5.20
2022-08-27T18:04:08.607Z,7.63
2022-08-27T18:06:35.734Z,6.07
2022-08-27T18:09:03.070Z,4.55
2022-08-27T18:11:30.194Z,7.50
2022-08-27T18:14:02.715Z,6.13
2022-08-27T18:16:31.321Z,4.65
2022-08-27T18:18:58.105Z,8.98
2022-08-27T18:21:26.218Z,4.43
2022-08-27T18:23:53.679Z,4.60
2022-08-27T18:26:21.825Z,5.97
2022-08-27T18:28:48.691Z,5.60
2022-08-27T18:31:17.473Z,3.13
2022-08-27T18:33:44.121Z,4.72
2022-08-27T18:36:10.854Z,5.75
2022-08-27T18:38:37.516Z,4.95
2022-08-27T18:41:06.464Z,6.50
2022-08-27T18:43:35.364Z,6.53
2022-08-27T18:46:03.262Z,6.75
2022-08-27T18:48:30.098Z,4.93
2022-08-27T18:50:58.944Z,5.30
2022-08-27T18:53:28.413Z,4.10
2022-08-27T18:55:55.624Z,6.93
2022-08-27T18:58:23.165Z,7.43
2022-08-27T19:00:55.743Z,7.57
2022-08-27T19:03:27.010Z,4.97
2022-08-27T19:05:56.054Z,5.53
2022-08-27T19:08:23.432Z,5.63
2022-08-27T19:10:50.042Z,8.82
2022-08-27T19:13:16.867Z,5.22
2022-08-27T19:15:46.557Z,5.25
2022-08-27T19:18:13.335Z,4.75
2022-08-27T19:20:40.028Z,8.07
2022-08-27T19:23:06.632Z,4.70
2022-08-27T19:25:33.304Z,5.78
2022-08-27T19:27:59.925Z,7.22
2022-08-27T19:30:26.760Z,6.78
2022-08-27T19:32:54.704Z,6.45
2022-08-27T19:35:23.663Z,9.05
2022-08-27T19:37:53.253Z,8.10
2022-08-27T19:40:22.064Z,11.00
2022-08-27T19:42:49.810Z,8.52
2022-08-27T19:45:23.093Z,9.07
2022-08-27T19:47:51.789Z,13.07
2022-08-27T19:50:20.379Z,6.65
2022-08-27T19:52:48.203Z,11.65
2022-08-27T19:55:15.076Z,7.10
2022-08-27T19:57:42.753Z,10.95
2022-08-27T20:00:12.088Z,12.10
2022-08-27T20:02:38.924Z,7.53
2022-08-27T20:05:17.938Z,7.47
2022-08-27T20:07:45.647Z,7.47
2022-08-27T20:10:12.382Z,6.85
2022-08-27T20:12:39.125Z,9.60
2022-08-27T20:15:06.801Z,9.10
2022-08-27T20:17:34.624Z,8.57
2022-08-27T20:20:01.270Z,10.32
2022-08-27T20:22:28.338Z,10.40
2022-08-27T20:24:54.930Z,8.68
2022-08-27T20:27:21.657Z,10.38
2022-08-27T20:29:48.779Z,11.82
2022-08-27T20:32:15.552Z,12.45
2022-08-27T20:34:42.410Z,11.77
2022-08-27T20:37:09.151Z,11.88
2022-08-27T20:39:36.152Z,10.52
2022-08-27T20:42:03.247Z,13.02
2022-08-27T20:44:31.541Z,11.35
2022-08-27T20:47:00.173Z,12.68
2022-08-27T20:49:28.020Z,8.57
2022-08-27T20:52:03.133Z,13.63
2022-08-27T20:54:31.643Z,10.38
2022-08-27T20:56:58.577Z,17.23
2022-08-27T20:59:43.879Z,15.30
2022-08-27T21:02:13.515Z,13.75
2022-08-27T21:04:42.973Z,13.15
2022-08-27T21:07:09.847Z,10.75
2022-08-27T21:09:36.541Z,11.07
2022-08-27T21:12:23.128Z,9.25
2022-08-27T21:14:56.019Z,13.48
2022-08-27T21:17:24.585Z,11.45
2022-08-27T21:19:51.562Z,8.75
2022-08-27T21:22:19.215Z,11.05
2022-08-27T21:24:47.558Z,23.23
2022-08-27T21:29:47.143Z,11.48
2022-08-27T21:32:14.684Z,11.18
2022-08-27T21:34:44.697Z,11.52
2022-08-27T21:37:12.572Z,12.13
2022-08-27T21:39:40.224Z,12.25
2022-08-27T21:42:07.781Z,9.03
2022-08-27T21:44:34.930Z,13.43
2022-08-27T21:47:04.186Z,10.63
2022-08-27T21:49:34.851Z,12.27
2022-08-27T21:52:03.788Z,13.52
2022-08-27T21:54:36.635Z,9.63
2022-08-27T21:57:04.489Z,9.20
2022-08-27T21:59:32.596Z,8.05
2022-08-27T22:02:00.911Z,11.30
2022-08-27T22:04:31.712Z,10.50
2022-08-27T22:06:58.842Z,11.60
2022-08-27T22:09:25.768Z,15.70
2022-08-27T22:11:52.351Z,11.40
2022-08-27T22:14:19.044Z,12.23
2022-08-27T22:16:45.665Z,9.95
2022-08-27T22:19:12.303Z,12.65
2022-08-27T22:21:39.071Z,9.63
2022-08-27T22:24:06.080Z,13.52
2022-08-27T22:26:32.668Z,11.35
2022-08-27T22:28:59.345Z,16.85
2022-08-27T22:31:26.212Z,11.57
2022-08-27T22:33:53.542Z,13.38
2022-08-27T22:36:20.312Z,14.98
2022-08-27T22:38:47.698Z,18.23
2022-08-27T22:41:14.710Z,16.50
2022-08-27T22:43:45.390Z,13.70
2022-08-27T22:46:12.085Z,16.30
2022-08-27T22:48:38.769Z,11.55
2022-08-27T22:51:05.433Z,15.40
2022-08-27T22:53:32.165Z,15.43
2022-08-27T22:55:59.672Z,14.93
2022-08-27T22:58:26.407Z,17.35
2022-08-27T23:00:54.792Z,17.58
2022-08-27T23:03:21.943Z,21.52
2022-08-27T23:05:48.937Z,13.80
2022-08-27T23:08:15.916Z,12.52
2022-08-27T23:10:43.185Z,14.05
2022-08-27T23:13:10.924Z,12.98
2022-08-27T23:15:38.747Z,8.67
2022-08-27T23:18:05.572Z,18.60
2022-08-27T23:20:32.498Z,20.38
2022-08-27T23:22:59.126Z,16.25
2022-08-27T23:25:45.383Z,15.77
2022-08-27T23:28:15.083Z,11.27
2022-08-27T23:30:42.760Z,12.07
2022-08-27T23:33:09.724Z,17.00
2022-08-27T23:35:36.484Z,12.68
2022-08-27T23:38:03.420Z,11.95
2022-08-27T23:40:30.401Z,12.48
2022-08-27T23:42:57.179Z,16.88
2022-08-27T23:45:25.301Z,12.80
2022-08-27T23:47:52.409Z,11.77
2022-08-27T23:50:20.139Z,15.98
2022-08-27T23:52:51.732Z,17.38
2022-08-27T23:55:20.580Z,14.30
2022-08-27T23:57:47.194Z,12.27
